Time,TemperatureF,DewpointF,PressureIn,WindDirection,WindDirectionDegrees,WindSpeedMPH,WindSpeedGustMPH,Humidity,HourlyPrecipIn,Conditions,Clouds,dailyrainin,SoftwareType,DateUTC
2013-03-07 00:00:00,36.5,33.8,29.91,NE,42,14.0,32.0,90,0.00,,,0.00,meteohub,2013-03-07 05:00:00,
2013-03-07 00:02:00,36.7,34.0,29.91,ENE,62,24.0,32.0,90,0.00,,,0.00,meteohub,2013-03-07 05:02:00,
2013-03-07 00:07:00,36.5,33.8,29.91,NE,35,17.0,30.0,90,0.00,,,0.00,meteohub,2013-03-07 05:07:00,
2013-03-07 00:12:00,36.3,33.6,29.91,NNE,25,20.0,31.0,90,0.00,,,0.00,meteohub,2013-03-07 05:12:00,
2013-03-07 00:17:00,36.3,33.6,29.91,NNE,30,17.0,31.0,90,0.00,,,0.00,meteohub,2013-03-07 05:17:00,
2013-03-07 00:22:00,36.3,34.0,29.91,NNE,21,20.0,31.0,91,0.00,,,0.00,meteohub,2013-03-07 05:22:00,
2013-03-07 00:27:00,36.1,33.8,29.91,NNW,346,19.0,31.0,91,0.00,,,0.00,meteohub,2013-03-07 05:27:00,
2013-03-07 00:32:00,36.0,33.6,29.91,NNE,28,19.0,34.0,91,0.00,,,0.00,meteohub,2013-03-07 05:32:00,
2013-03-07 00:37:00,36.0,33.6,29.91,NE,42,20.0,34.0,91,0.00,,,0.00,meteohub,2013-03-07 05:37:00,
2013-03-07 00:42:00,36.0,33.8,29.91,NNE,26,14.0,34.0,92,0.00,,,0.00,meteohub,2013-03-07 05:42:00,
2013-03-07 00:47:00,36.3,34.0,29.91,NNE,26,12.0,31.0,91,0.00,,,0.00,meteohub,2013-03-07 05:47:00,
2013-03-07 00:52:00,36.5,33.6,29.92,NNE,23,14.0,30.0,89,0.00,,,0.00,meteohub,2013-03-07 05:52:00,
2013-03-07 00:57:00,36.7,33.8,29.91,ENE,68,20.0,30.0,89,0.00,,,0.00,meteohub,2013-03-07 05:57:00,
2013-03-07 01:02:00,36.7,33.8,29.91,North,8,17.0,31.0,89,0.00,,,0.00,meteohub,2013-03-07 06:02:00,
2013-03-07 01:07:00,36.5,33.6,29.91,NE,48,16.0,31.0,89,0.00,,,0.00,meteohub,2013-03-07 06:07:00,
2013-03-07 01:12:00,36.3,33.6,29.91,NE,36,25.0,31.0,90,0.00,,,0.00,meteohub,2013-03-07 06:12:00,
2013-03-07 01:17:00,36.3,33.4,29.91,ENE,72,19.0,31.0,89,0.00,,,0.00,meteohub,2013-03-07 06:17:00,
2013-03-07 01:22:00,36.3,33.6,29.91,NE,42,21.0,31.0,90,0.00,,,0.00,meteohub,2013-03-07 06:22:00,
2013-03-07 01:27:00,36.3,33.4,29.91,North,356,18.0,31.0,89,0.00,,,0.00,meteohub,2013-03-07 06:27:00,
2013-03-07 01:32:00,36.3,33.6,29.91,NE,35,31.0,32.0,90,0.00,,,0.00,meteohub,2013-03-07 06:32:00,
2013-03-07 01:37:00,36.3,33.4,29.91,North,8,24.0,32.0,89,0.00,,,0.00,meteohub,2013-03-07 06:37:00,
2013-03-07 01:42:00,36.3,33.4,29.91,NNE,20,20.0,31.0,89,0.00,,,0.00,meteohub,2013-03-07 06:42:00,
2013-03-07 01:47:00,36.3,33.4,29.91,NE,49,18.0,31.0,89,0.00,,,0.00,meteohub,2013-03-07 06:47:00,
2013-03-07 01:52:00,36.3,33.4,29.91,NW,325,8.0,30.0,89,0.00,,,0.00,meteohub,2013-03-07 06:52:00,
2013-03-07 01:57:00,36.5,33.3,29.91,North,11,23.0,30.0,88,0.00,,,0.00,meteohub,2013-03-07 06:57:00,
2013-03-07 02:02:00,36.5,33.3,29.91,NE,41,21.0,29.0,88,0.00,,,0.00,meteohub,2013-03-07 07:02:00,
2013-03-07 02:07:00,36.7,33.3,29.91,NNE,21,16.0,29.0,87,0.00,,,0.00,meteohub,2013-03-07 07:07:00,
2013-03-07 02:12:00,36.7,33.3,29.91,NNE,26,18.0,31.0,87,0.00,,,0.00,meteohub,2013-03-07 07:12:00,
2013-03-07 02:17:00,36.7,33.3,29.90,NNE,33,13.0,33.0,87,0.00,,,0.00,meteohub,2013-03-07 07:17:00,
2013-03-07 02:22:00,36.7,32.9,29.90,NE,47,15.0,33.0,86,0.00,,,0.00,meteohub,2013-03-07 07:22:00,
2013-03-07 02:27:00,36.7,32.9,29.90,NE,44,13.0,33.0,86,0.00,,,0.00,meteohub,2013-03-07 07:27:00,
2013-03-07 02:32:00,36.7,32.9,29.90,North,11,24.0,28.0,86,0.00,,,0.00,meteohub,2013-03-07 07:32:00,
2013-03-07 02:38:00,36.9,33.1,29.90,NE,50,12.0,29.0,86,0.00,,,0.00,meteohub,2013-03-07 07:38:00,
2013-03-07 02:43:00,36.9,32.7,29.90,NNW,341,27.0,30.0,85,0.00,,,0.00,meteohub,2013-03-07 07:43:00,
2013-03-07 02:48:00,36.9,32.7,29.90,NNE,25,21.0,30.0,85,0.00,,,0.00,meteohub,2013-03-07 07:48:00,
2013-03-07 02:53:00,36.9,32.7,29.91,NNE,27,24.0,30.0,85,0.00,,,0.00,meteohub,2013-03-07 07:53:00,
2013-03-07 02:58:00,36.9,32.7,29.90,North,355,9.0,30.0,85,0.00,,,0.00,meteohub,2013-03-07 07:58:00,
2013-03-07 03:03:00,36.9,33.1,29.90,NNE,23,29.0,30.0,86,0.00,,,0.00,meteohub,2013-03-07 08:03:00,
2013-03-07 03:08:00,36.9,32.7,29.90,ENE,58,17.0,28.0,85,0.00,,,0.00,meteohub,2013-03-07 08:08:00,
2013-03-07 03:13:00,36.9,32.5,29.90,NE,51,19.0,29.0,84,0.00,,,0.00,meteohub,2013-03-07 08:13:00,
2013-03-07 03:18:00,36.9,32.5,29.91,NE,37,22.0,31.0,84,0.00,,,0.00,meteohub,2013-03-07 08:18:00,
2013-03-07 03:23:00,36.9,32.7,29.90,ENE,75,13.0,31.0,85,0.00,,,0.00,meteohub,2013-03-07 08:23:00,
2013-03-07 03:28:00,36.7,32.4,29.91,North,8,20.0,31.0,84,0.00,,,0.00,meteohub,2013-03-07 08:28:00,
2013-03-07 03:33:00,36.7,32.5,29.91,NNW,338,13.0,29.0,85,0.00,,,0.00,meteohub,2013-03-07 08:33:00,
2013-03-07 03:38:00,36.3,32.5,29.91,ENE,75,15.0,29.0,86,0.00,,,0.00,meteohub,2013-03-07 08:38:00,
2013-03-07 03:44:00,36.5,32.7,29.91,North,11,20.0,33.0,86,0.00,,,0.00,meteohub,2013-03-07 08:44:00,
2013-03-07 03:49:00,36.3,32.5,29.91,NNE,12,18.0,33.0,86,0.00,,,0.00,meteohub,2013-03-07 08:49:00,
2013-03-07 03:54:00,35.8,32.5,29.91,NNE,21,25.0,33.0,88,0.00,,,0.00,meteohub,2013-03-07 08:54:00,
2013-03-07 03:59:00,36.0,32.7,29.91,NNE,14,19.0,33.0,88,0.00,,,0.00,meteohub,2013-03-07 08:59:00,
2013-03-07 04:04:00,36.0,32.5,29.91,NNE,25,27.0,36.0,87,0.00,,,0.00,meteohub,2013-03-07 09:04:00,
2013-03-07 04:09:00,36.1,32.7,29.92,NNE,20,24.0,36.0,87,0.00,,,0.00,meteohub,2013-03-07 09:09:00,
2013-03-07 04:14:00,36.0,32.5,29.92,North,8,15.0,36.0,87,0.00,,,0.00,meteohub,2013-03-07 09:14:00,
2013-03-07 04:19:00,35.8,32.4,29.92,NNE,17,24.0,32.0,87,0.00,,,0.00,meteohub,2013-03-07 09:19:00,
2013-03-07 04:24:00,35.6,32.4,29.92,NE,54,18.0,31.0,88,0.00,,,0.00,meteohub,2013-03-07 09:24:00,
2013-03-07 04:29:00,35.4,32.2,29.92,North,0,27.0,31.0,88,0.00,,,0.00,meteohub,2013-03-07 09:29:00,
2013-03-07 04:34:00,35.6,32.4,29.92,NNE,20,27.0,31.0,88,0.00,,,0.00,meteohub,2013-03-07 09:34:00,
2013-03-07 04:39:00,35.1,32.2,29.92,North,358,24.0,32.0,89,0.00,,,0.00,meteohub,2013-03-07 09:39:00,
2013-03-07 04:44:00,34.7,32.4,29.93,NNE,15,20.0,32.0,91,0.00,,,0.00,meteohub,2013-03-07 09:44:00,
2013-03-07 04:49:00,34.5,32.7,29.93,NE,55,14.0,32.0,93,0.00,,,0.00,meteohub,2013-03-07 09:49:00,
2013-03-07 04:54:00,33.6,31.8,29.93,North,349,24.0,30.0,93,0.00,,,0.00,meteohub,2013-03-07 09:54:00,
2013-03-07 04:59:00,33.6,31.8,29.93,North,349,24.0,29.0,93,0.00,,,0.00,meteohub,2013-03-07 09:59:00,
2013-03-07 05:04:00,33.6,31.8,29.93,North,-999,-999.0,29.0,93,0.00,,,0.00,meteohub,2013-03-07 10:04:00,
2013-03-07 07:07:00,34.5,32.7,29.96,North,-999,-999.0,-999.0,93,-99.99,,,0.00,meteohub,2013-03-07 12:07:00,
2013-03-07 07:12:00,34.5,32.4,29.96,North,-999,-999.0,-999.0,92,-99.99,,,0.00,meteohub,2013-03-07 12:12:00,
2013-03-07 07:17:00,34.3,32.0,29.96,NNW,338,20.0,-999.0,91,0.00,,,0.00,meteohub,2013-03-07 12:17:00,
2013-03-07 07:22:00,34.3,32.0,29.96,NE,37,26.0,32.0,91,0.00,,,0.00,meteohub,2013-03-07 12:22:00,
2013-03-07 07:27:00,34.5,32.2,29.96,NE,40,31.0,32.0,91,0.00,,,0.00,meteohub,2013-03-07 12:27:00,
2013-03-07 07:32:00,34.5,32.2,29.96,NNE,23,25.0,32.0,91,0.00,,,0.00,meteohub,2013-03-07 12:32:00,
2013-03-07 07:37:00,34.2,32.0,29.96,North,351,21.0,34.0,92,0.00,,,0.00,meteohub,2013-03-07 12:37:00,
2013-03-07 07:42:00,34.0,31.8,29.96,NE,37,22.0,34.0,92,0.00,,,0.00,meteohub,2013-03-07 12:42:00,
2013-03-07 07:47:00,34.0,31.8,29.96,NNW,347,26.0,36.0,92,0.00,,,0.00,meteohub,2013-03-07 12:47:00,
2013-03-07 07:52:00,34.2,32.0,29.96,NNE,16,24.0,36.0,92,0.00,,,0.00,meteohub,2013-03-07 12:52:00,
2013-03-07 07:57:00,34.2,32.0,29.96,NNE,20,25.0,36.0,92,0.00,,,0.00,meteohub,2013-03-07 12:57:00,
2013-03-07 08:02:00,34.2,32.4,29.96,North,359,20.0,35.0,93,0.00,,,0.00,meteohub,2013-03-07 13:02:00,
2013-03-07 08:07:00,34.2,32.4,29.96,NNE,25,25.0,35.0,93,0.00,,,0.00,meteohub,2013-03-07 13:07:00,
2013-03-07 08:12:00,34.3,32.2,29.96,NNE,27,24.0,32.0,92,0.00,,,0.00,meteohub,2013-03-07 13:12:00,
2013-03-07 08:17:00,34.3,32.0,29.96,NNE,19,34.0,34.0,91,0.00,,,0.00,meteohub,2013-03-07 13:17:00,
2013-03-07 08:22:00,34.5,31.8,29.96,North,353,17.0,34.0,90,0.00,,,0.00,meteohub,2013-03-07 13:22:00,
2013-03-07 08:27:00,34.5,31.8,29.96,NNE,18,23.0,34.0,90,0.00,,,0.00,meteohub,2013-03-07 13:27:00,
2013-03-07 08:33:00,34.5,31.6,29.97,NNW,342,27.0,34.0,89,0.00,,,0.00,meteohub,2013-03-07 13:33:00,
2013-03-07 08:38:00,34.7,31.5,29.96,NNE,19,25.0,34.0,88,0.00,,,0.00,meteohub,2013-03-07 13:38:00,
2013-03-07 08:43:00,34.9,31.5,29.96,NNE,24,29.0,34.0,87,0.00,,,0.00,meteohub,2013-03-07 13:43:00,
2013-03-07 08:48:00,34.9,31.6,29.96,NE,40,21.0,34.0,88,0.00,,,0.00,meteohub,2013-03-07 13:48:00,
2013-03-07 08:53:00,35.1,31.6,29.96,NNE,28,28.0,33.0,87,0.00,,,0.00,meteohub,2013-03-07 13:53:00,
2013-03-07 08:58:00,35.1,31.6,29.96,North,355,31.0,33.0,87,0.00,,,0.00,meteohub,2013-03-07 13:58:00,
2013-03-07 09:03:00,35.2,31.5,29.96,NE,42,24.0,32.0,86,0.00,,,0.00,meteohub,2013-03-07 14:03:00,
2013-03-07 09:08:00,35.2,31.5,29.96,NNW,339,18.0,32.0,86,0.00,,,0.00,meteohub,2013-03-07 14:08:00,
2013-03-07 09:13:00,35.2,31.1,29.96,NNE,29,23.0,32.0,85,0.00,,,0.00,meteohub,2013-03-07 14:13:00,
2013-03-07 09:18:00,35.4,31.3,29.96,NNE,15,28.0,32.0,85,0.00,,,0.00,meteohub,2013-03-07 14:18:00,
2013-03-07 09:24:00,35.4,31.3,29.96,North,1,25.0,32.0,85,0.00,,,0.00,meteohub,2013-03-07 14:24:00,
2013-03-07 09:29:00,35.8,31.6,29.96,North,355,21.0,32.0,85,0.00,,,0.00,meteohub,2013-03-07 14:29:00,
2013-03-07 09:34:00,36.0,31.8,29.96,NE,41,20.0,32.0,85,0.00,,,0.00,meteohub,2013-03-07 14:34:00,
2013-03-07 09:39:00,36.0,31.3,29.96,NNE,20,18.0,31.0,83,0.00,,,0.00,meteohub,2013-03-07 14:39:00,
2013-03-07 09:44:00,36.3,31.6,29.96,North,353,21.0,34.0,83,0.00,,,0.00,meteohub,2013-03-07 14:44:00,
2013-03-07 09:49:00,36.3,31.3,29.96,NNE,26,28.0,34.0,82,0.00,,,0.00,meteohub,2013-03-07 14:49:00,
2013-03-07 09:54:00,36.5,31.5,29.96,NNE,23,21.0,34.0,82,0.00,,,0.00,meteohub,2013-03-07 14:54:00,
2013-03-07 09:59:00,36.7,31.6,29.96,ENE,58,30.0,30.0,82,0.00,,,0.00,meteohub,2013-03-07 14:59:00,
2013-03-07 10:04:00,36.9,31.6,29.96,NNE,21,24.0,30.0,81,0.00,,,0.00,meteohub,2013-03-07 15:04:00,
2013-03-07 10:09:00,37.0,31.8,29.96,North,352,28.0,31.0,81,0.00,,,0.00,meteohub,2013-03-07 15:09:00,
2013-03-07 10:15:00,37.2,32.0,29.96,NNE,21,19.0,31.0,81,0.00,,,0.00,meteohub,2013-03-07 15:15:00,
2013-03-07 10:20:00,37.2,32.0,29.96,North,5,23.0,31.0,81,0.00,,,0.00,meteohub,2013-03-07 15:20:00,
2013-03-07 10:25:00,37.4,32.2,29.96,NNE,20,18.0,31.0,81,0.00,,,0.00,meteohub,2013-03-07 15:25:00,
2013-03-07 10:30:00,37.6,32.0,29.96,North,359,22.0,31.0,80,0.00,,,0.00,meteohub,2013-03-07 15:30:00,
2013-03-07 10:35:00,37.8,31.5,29.96,NNE,14,26.0,32.0,78,0.00,,,0.00,meteohub,2013-03-07 15:35:00,
2013-03-07 10:40:00,37.9,32.0,29.96,NE,44,21.0,32.0,79,0.00,,,0.00,meteohub,2013-03-07 15:40:00,
2013-03-07 10:45:00,37.9,32.0,29.96,NNE,16,22.0,32.0,79,0.00,,,0.00,meteohub,2013-03-07 15:45:00,
2013-03-07 10:50:00,38.1,32.2,29.96,NNE,23,19.0,32.0,79,0.00,,,0.00,meteohub,2013-03-07 15:50:00,
2013-03-07 10:55:00,38.5,32.2,29.96,NNE,20,16.0,32.0,78,0.00,,,0.00,meteohub,2013-03-07 15:55:00,
2013-03-07 11:00:00,38.5,32.2,29.96,NE,46,21.0,30.0,78,0.00,,,0.00,meteohub,2013-03-07 16:00:00,
2013-03-07 11:05:00,38.5,31.8,29.97,NNE,19,26.0,32.0,77,0.00,,,0.00,meteohub,2013-03-07 16:05:00,
2013-03-07 11:10:00,38.5,32.2,29.97,North,354,20.0,32.0,78,0.00,,,0.00,meteohub,2013-03-07 16:10:00,
2013-03-07 11:15:00,38.5,32.2,29.97,NNE,12,26.0,32.0,78,0.00,,,0.00,meteohub,2013-03-07 16:15:00,
2013-03-07 11:20:00,38.5,31.8,29.97,North,354,24.0,33.0,77,0.00,,,0.00,meteohub,2013-03-07 16:20:00,
2013-03-07 11:25:00,38.7,32.4,29.98,NNE,21,21.0,33.0,78,0.00,,,0.00,meteohub,2013-03-07 16:25:00,
2013-03-07 11:30:00,38.5,31.8,29.98,NNE,21,22.0,33.0,77,0.00,,,0.00,meteohub,2013-03-07 16:30:00,
2013-03-07 11:35:00,38.5,32.2,29.98,NNE,20,22.0,29.0,78,0.00,,,0.00,meteohub,2013-03-07 16:35:00,
2013-03-07 11:40:00,38.5,32.2,29.98,NE,37,24.0,31.0,78,0.00,,,0.00,meteohub,2013-03-07 16:40:00,
2013-03-07 11:45:00,38.5,32.2,29.98,NNE,14,21.0,31.0,78,0.00,,,0.00,meteohub,2013-03-07 16:45:00,
2013-03-07 11:50:00,38.5,31.8,29.99,NNE,33,24.0,31.0,77,0.00,,,0.00,meteohub,2013-03-07 16:50:00,
2013-03-07 11:55:00,38.5,32.2,29.99,NNE,14,15.0,34.0,78,0.00,,,0.00,meteohub,2013-03-07 16:55:00,
2013-03-07 12:00:00,38.5,32.2,29.98,North,5,20.0,34.0,78,0.00,,,0.00,meteohub,2013-03-07 17:00:00,
2013-03-07 12:05:00,38.5,32.5,29.98,North,5,20.0,34.0,79,0.00,,,0.00,meteohub,2013-03-07 17:05:00,
2013-03-07 12:10:00,38.5,32.2,29.98,NNE,23,23.0,30.0,78,0.00,,,0.00,meteohub,2013-03-07 17:10:00,
2013-03-07 12:16:00,38.5,31.8,29.98,NNE,17,25.0,31.0,77,0.00,,,0.00,meteohub,2013-03-07 17:16:00,
2013-03-07 12:21:00,38.5,32.5,29.98,North,354,20.0,31.0,79,0.00,,,0.00,meteohub,2013-03-07 17:21:00,
2013-03-07 12:26:00,38.5,32.2,29.98,North,354,21.0,31.0,78,0.00,,,0.00,meteohub,2013-03-07 17:26:00,
2013-03-07 12:31:00,38.3,32.7,29.98,North,9,22.0,31.0,80,0.00,,,0.00,meteohub,2013-03-07 17:31:00,
2013-03-07 12:36:00,38.1,32.7,29.98,NNE,21,18.0,31.0,81,0.00,,,0.00,meteohub,2013-03-07 17:36:00,
2013-03-07 12:41:00,37.9,32.4,29.98,NNE,20,21.0,29.0,80,0.00,,,0.00,meteohub,2013-03-07 17:41:00,
2013-03-07 12:46:00,37.9,32.9,29.98,NNE,22,25.0,30.0,82,0.00,,,0.00,meteohub,2013-03-07 17:46:00,
2013-03-07 12:51:00,37.9,32.4,29.97,NNE,33,19.0,30.0,80,0.00,,,0.00,meteohub,2013-03-07 17:51:00,
2013-03-07 12:56:00,37.9,32.4,29.97,NNE,25,20.0,28.0,80,0.00,,,0.00,meteohub,2013-03-07 17:56:00,
2013-03-07 13:01:00,37.9,32.4,29.98,North,352,24.0,31.0,80,0.00,,,0.00,meteohub,2013-03-07 18:01:00,
2013-03-07 13:06:00,37.9,32.4,29.97,NE,43,19.0,33.0,80,0.00,,,0.00,meteohub,2013-03-07 18:06:00,
2013-03-07 13:11:00,37.9,32.4,29.97,NNE,15,23.0,33.0,80,0.00,,,0.00,meteohub,2013-03-07 18:11:00,
2013-03-07 13:16:00,37.9,32.0,29.98,NNE,22,21.0,33.0,79,0.00,,,0.00,meteohub,2013-03-07 18:16:00,
2013-03-07 13:21:00,37.9,32.4,29.98,NNE,20,22.0,30.0,80,0.00,,,0.00,meteohub,2013-03-07 18:21:00,
2013-03-07 13:26:00,37.9,32.4,29.98,NE,40,19.0,30.0,80,0.00,,,0.00,meteohub,2013-03-07 18:26:00,
2013-03-07 13:31:00,37.9,31.6,29.98,NE,41,28.0,30.0,78,0.00,,,0.00,meteohub,2013-03-07 18:31:00,
2013-03-07 13:37:00,37.9,32.4,29.98,North,5,22.0,35.0,80,0.00,,,0.00,meteohub,2013-03-07 18:37:00,
2013-03-07 13:42:00,37.9,32.4,29.98,NNE,22,18.0,35.0,80,0.00,,,0.00,meteohub,2013-03-07 18:42:00,
2013-03-07 13:47:00,37.8,32.5,29.98,North,8,33.0,35.0,81,0.00,,,0.00,meteohub,2013-03-07 18:47:00,
2013-03-07 13:52:00,37.8,32.2,29.98,NE,45,22.0,33.0,80,0.00,,,0.00,meteohub,2013-03-07 18:52:00,
2013-03-07 13:57:00,37.6,32.4,29.98,North,5,23.0,33.0,81,0.00,,,0.00,meteohub,2013-03-07 18:57:00,
2013-03-07 14:02:00,37.6,32.5,29.98,NNE,13,21.0,33.0,82,0.00,,,0.00,meteohub,2013-03-07 19:02:00,
2013-03-07 14:07:00,37.2,32.5,29.98,NNE,12,22.0,32.0,83,0.00,,,0.00,meteohub,2013-03-07 19:07:00,
2013-03-07 14:12:00,37.2,32.9,29.99,NNW,345,17.0,30.0,84,0.00,,,0.00,meteohub,2013-03-07 19:12:00,
2013-03-07 14:17:00,36.9,33.1,29.99,NW,312,11.0,28.0,86,0.00,,,0.00,meteohub,2013-03-07 19:17:00,
2013-03-07 14:22:00,36.7,33.3,29.99,NNE,18,17.0,28.0,87,0.00,,,0.00,meteohub,2013-03-07 19:22:00,
2013-03-07 14:27:00,36.7,33.4,29.99,NW,323,19.0,27.0,88,0.00,,,0.00,meteohub,2013-03-07 19:27:00,
2013-03-07 14:32:00,36.7,33.4,29.99,NNW,340,20.0,27.0,88,0.00,,,0.00,meteohub,2013-03-07 19:32:00,
2013-03-07 14:37:00,36.5,33.6,29.99,NNW,342,24.0,27.0,89,0.00,,,0.00,meteohub,2013-03-07 19:37:00,
2013-03-07 14:43:00,36.3,33.1,29.99,NNW,341,20.0,28.0,88,0.00,,,0.00,meteohub,2013-03-07 19:43:00,
2013-03-07 14:48:00,36.5,33.6,29.99,North,352,17.0,28.0,89,0.00,,,0.00,meteohub,2013-03-07 19:48:00,
2013-03-07 14:53:00,36.5,33.3,29.99,NNW,340,17.0,25.0,88,0.00,,,0.00,meteohub,2013-03-07 19:53:00,
2013-03-07 14:58:00,36.7,33.4,29.99,North,357,14.0,25.0,88,0.00,,,0.00,meteohub,2013-03-07 19:58:00,
2013-03-07 15:03:00,37.0,32.7,29.99,NE,40,17.0,25.0,84,0.00,,,0.00,meteohub,2013-03-07 20:03:00,
2013-03-07 15:08:00,37.6,33.3,30.00,NNW,345,27.0,29.0,84,0.00,,,0.00,meteohub,2013-03-07 20:08:00,
2013-03-07 15:13:00,37.2,33.1,30.00,North,353,14.0,30.0,85,0.00,,,0.00,meteohub,2013-03-07 20:13:00,
2013-03-07 15:18:00,37.2,33.1,30.00,NNE,21,15.0,30.0,85,0.00,,,0.00,meteohub,2013-03-07 20:18:00,
2013-03-07 15:23:00,37.2,32.5,30.00,NNE,25,19.0,30.0,83,0.00,,,0.00,meteohub,2013-03-07 20:23:00,
2013-03-07 15:28:00,37.8,32.7,30.00,NE,43,19.0,25.0,82,0.00,,,0.00,meteohub,2013-03-07 20:28:00,
2013-03-07 15:33:00,37.8,33.4,30.00,NW,317,18.0,26.0,84,0.00,,,0.00,meteohub,2013-03-07 20:33:00,
2013-03-07 15:38:00,37.2,33.4,30.01,NNW,346,16.0,26.0,86,0.00,,,0.00,meteohub,2013-03-07 20:38:00,
2013-03-07 15:43:00,37.0,33.3,30.01,NNE,15,17.0,26.0,86,0.00,,,0.00,meteohub,2013-03-07 20:43:00,
2013-03-07 15:48:00,36.9,33.1,30.01,NNW,333,19.0,25.0,86,0.00,,,0.00,meteohub,2013-03-07 20:48:00,
2013-03-07 15:53:00,37.0,32.7,30.01,North,9,28.0,28.0,84,0.00,,,0.00,meteohub,2013-03-07 20:53:00,
2013-03-07 15:58:00,36.9,32.5,30.01,NNE,33,22.0,28.0,84,0.00,,,0.00,meteohub,2013-03-07 20:58:00,
2013-03-07 16:03:00,36.7,32.9,30.01,NE,46,19.0,29.0,86,0.00,,,0.00,meteohub,2013-03-07 21:03:00,
2013-03-07 16:08:00,36.5,33.1,30.01,North,354,22.0,29.0,87,0.00,,,0.00,meteohub,2013-03-07 21:08:00,
2013-03-07 16:14:00,36.3,33.1,30.01,North,352,20.0,29.0,88,0.00,,,0.00,meteohub,2013-03-07 21:14:00,
2013-03-07 16:19:00,36.0,33.1,30.01,North,356,23.0,27.0,89,0.00,,,0.00,meteohub,2013-03-07 21:19:00,
2013-03-07 16:24:00,36.0,33.1,30.01,NNE,15,21.0,28.0,89,0.00,,,0.00,meteohub,2013-03-07 21:24:00,
2013-03-07 16:29:00,36.0,33.1,30.01,North,353,24.0,28.0,89,0.00,,,0.00,meteohub,2013-03-07 21:29:00,
2013-03-07 16:34:00,36.1,33.3,30.01,NNW,348,25.0,28.0,89,0.00,,,0.00,meteohub,2013-03-07 21:34:00,
2013-03-07 16:39:00,36.1,33.3,30.01,North,352,21.0,31.0,89,0.00,,,0.00,meteohub,2013-03-07 21:39:00,
2013-03-07 16:44:00,36.1,33.4,30.01,NNW,333,16.0,31.0,90,0.00,,,0.00,meteohub,2013-03-07 21:44:00,
2013-03-07 16:49:00,36.1,33.4,30.01,North,0,20.0,31.0,90,0.00,,,0.00,meteohub,2013-03-07 21:49:00,
2013-03-07 16:54:00,36.1,33.4,30.01,North,11,18.0,26.0,90,0.00,,,0.00,meteohub,2013-03-07 21:54:00,
2013-03-07 16:59:00,36.3,33.4,30.01,NNW,332,18.0,25.0,89,0.00,,,0.00,meteohub,2013-03-07 21:59:00,
2013-03-07 17:04:00,36.1,33.3,30.02,North,349,20.0,27.0,89,0.00,,,0.00,meteohub,2013-03-07 22:04:00,
2013-03-07 17:09:00,36.0,33.3,30.02,NNW,348,18.0,28.0,90,0.00,,,0.00,meteohub,2013-03-07 22:09:00,
2013-03-07 17:14:00,36.0,33.3,30.02,NNE,33,20.0,28.0,90,0.00,,,0.00,meteohub,2013-03-07 22:14:00,
2013-03-07 17:19:00,36.0,33.3,30.02,North,8,20.0,28.0,90,0.00,,,0.00,meteohub,2013-03-07 22:19:00,
2013-03-07 17:24:00,35.8,33.4,30.03,NNW,345,20.0,27.0,91,0.00,,,0.00,meteohub,2013-03-07 22:24:00,
2013-03-07 17:29:00,35.8,33.4,30.03,North,349,15.0,27.0,91,0.00,,,0.00,meteohub,2013-03-07 22:29:00,
2013-03-07 17:34:00,35.8,33.4,30.03,WNW,285,18.0,27.0,91,0.00,,,0.00,meteohub,2013-03-07 22:34:00,
2013-03-07 17:39:00,35.8,33.4,30.03,NW,325,13.0,25.0,91,0.00,,,0.00,meteohub,2013-03-07 22:39:00,
2013-03-07 17:44:00,35.4,33.1,30.03,NNW,328,18.0,25.0,91,0.00,,,0.00,meteohub,2013-03-07 22:44:00,
2013-03-07 17:49:00,35.2,33.1,30.04,North,352,20.0,24.0,92,0.00,,,0.00,meteohub,2013-03-07 22:49:00,
2013-03-07 17:54:00,35.1,32.9,30.04,NNW,342,17.0,26.0,92,0.00,,,0.00,meteohub,2013-03-07 22:54:00,
2013-03-07 17:59:00,35.1,33.3,30.04,NNW,330,14.0,26.0,93,0.00,,,0.00,meteohub,2013-03-07 22:59:00,
2013-03-07 18:04:00,34.9,33.1,30.04,NW,321,16.0,26.0,93,0.00,,,0.00,meteohub,2013-03-07 23:04:00,
2013-03-07 18:09:00,34.5,32.7,30.04,North,352,18.0,25.0,93,0.00,,,0.00,meteohub,2013-03-07 23:09:00,
2013-03-07 18:14:00,34.5,32.9,30.04,NNE,15,15.0,25.0,94,0.00,,,0.00,meteohub,2013-03-07 23:14:00,
2013-03-07 18:19:00,34.3,32.7,30.04,NNW,339,17.0,25.0,94,0.00,,,0.00,meteohub,2013-03-07 23:19:00,
2013-03-07 18:24:00,34.3,32.7,30.04,NNW,342,18.0,24.0,94,0.00,,,0.00,meteohub,2013-03-07 23:24:00,
2013-03-07 18:29:00,34.3,33.1,30.04,North,357,19.0,23.0,95,0.00,,,0.00,meteohub,2013-03-07 23:29:00,
2013-03-07 18:34:00,34.2,32.9,30.04,NNW,345,15.0,23.0,95,0.00,,,0.00,meteohub,2013-03-07 23:34:00,
2013-03-07 18:39:00,34.2,32.9,30.04,North,356,17.0,23.0,95,0.00,,,0.00,meteohub,2013-03-07 23:39:00,
2013-03-07 18:44:00,34.3,33.1,30.04,NNW,335,23.0,24.0,95,0.00,,,0.00,meteohub,2013-03-07 23:44:00,
2013-03-07 18:49:00,34.2,32.9,30.04,NNE,23,19.0,24.0,95,0.01,,,0.01,meteohub,2013-03-07 23:49:00,
2013-03-07 18:54:00,34.0,32.7,30.04,NNW,335,16.0,25.0,95,0.01,,,0.01,meteohub,2013-03-07 23:54:00,
2013-03-07 18:59:00,34.0,32.9,30.04,NNW,328,18.0,25.0,96,0.01,,,0.01,meteohub,2013-03-07 23:59:00,
2013-03-07 19:04:00,34.2,33.1,30.04,NNW,342,22.0,25.0,96,0.01,,,0.01,meteohub,2013-03-08 00:04:00,
2013-03-07 19:09:00,34.0,32.9,30.04,NW,321,13.0,24.0,96,0.01,,,0.00,meteohub,2013-03-08 00:09:00,
2013-03-07 19:14:00,34.2,33.1,30.04,NNW,340,18.0,25.0,96,0.01,,,0.00,meteohub,2013-03-08 00:14:00,
2013-03-07 19:19:00,34.0,32.9,30.04,NW,321,18.0,25.0,96,0.01,,,0.00,meteohub,2013-03-08 00:19:00,
2013-03-07 19:24:00,34.0,32.9,30.04,NNW,338,17.0,24.0,96,0.01,,,0.00,meteohub,2013-03-08 00:24:00,
2013-03-07 19:29:00,34.0,32.9,30.04,North,1,19.0,26.0,96,0.01,,,0.00,meteohub,2013-03-08 00:29:00,
2013-03-07 19:34:00,33.8,32.7,30.04,North,1,24.0,28.0,96,0.02,,,0.01,meteohub,2013-03-08 00:34:00,
2013-03-07 19:39:00,33.6,32.9,30.04,NNW,342,19.0,28.0,97,0.02,,,0.01,meteohub,2013-03-08 00:39:00,
2013-03-07 19:44:00,33.6,32.9,30.04,NNW,346,21.0,26.0,97,0.02,,,0.01,meteohub,2013-03-08 00:44:00,
2013-03-07 19:49:00,33.6,32.9,30.04,North,356,20.0,27.0,97,0.01,,,0.01,meteohub,2013-03-08 00:49:00,
2013-03-07 19:55:00,33.6,32.9,30.04,North,355,20.0,29.0,97,0.01,,,0.01,meteohub,2013-03-08 00:55:00,
2013-03-07 20:00:00,33.8,33.1,30.04,North,10,21.0,29.0,97,0.01,,,0.01,meteohub,2013-03-08 01:00:00,
2013-03-07 20:05:00,33.8,33.1,30.04,NE,37,18.0,29.0,97,0.01,,,0.01,meteohub,2013-03-08 01:05:00,
2013-03-07 20:10:00,34.0,33.3,30.04,North,351,21.0,27.0,97,0.01,,,0.01,meteohub,2013-03-08 01:10:00,
2013-03-07 20:15:00,34.0,33.3,30.04,NNE,15,20.0,25.0,97,0.01,,,0.01,meteohub,2013-03-08 01:15:00,
2013-03-07 20:20:00,33.8,33.1,30.04,North,353,19.0,28.0,97,0.01,,,0.01,meteohub,2013-03-08 01:20:00,
2013-03-07 20:25:00,33.8,33.1,30.04,NW,311,17.0,28.0,97,0.00,,,0.01,meteohub,2013-03-08 01:25:00,
2013-03-07 20:30:00,33.6,32.9,30.04,North,353,17.0,28.0,97,0.00,,,0.01,meteohub,2013-03-08 01:30:00,
2013-03-07 20:35:00,33.6,32.9,30.04,NNE,27,22.0,28.0,97,0.00,,,0.01,meteohub,2013-03-08 01:35:00,
2013-03-07 20:40:00,33.4,32.7,30.04,NNW,336,17.0,28.0,97,0.00,,,0.01,meteohub,2013-03-08 01:40:00,
2013-03-07 20:45:00,33.3,32.5,30.04,NNE,12,23.0,27.0,97,0.00,,,0.01,meteohub,2013-03-08 01:45:00,
2013-03-07 20:50:00,33.1,32.4,30.04,NNW,335,18.0,27.0,97,0.00,,,0.01,meteohub,2013-03-08 01:50:00,
2013-03-07 20:55:00,32.9,32.2,30.04,NW,323,18.0,29.0,97,0.00,,,0.01,meteohub,2013-03-08 01:55:00,
2013-03-07 21:00:00,32.9,32.2,30.04,NNW,346,13.0,29.0,97,0.00,,,0.01,meteohub,2013-03-08 02:00:00,
2013-03-07 21:05:00,32.9,32.2,30.03,NW,317,14.0,29.0,97,0.00,,,0.01,meteohub,2013-03-08 02:05:00,
2013-03-07 21:10:00,33.1,32.4,30.03,NW,323,14.0,23.0,97,0.00,,,0.01,meteohub,2013-03-08 02:10:00,
2013-03-07 21:15:00,33.1,32.4,30.04,NNW,346,17.0,23.0,97,0.00,,,0.01,meteohub,2013-03-08 02:15:00,
2013-03-07 21:20:00,33.3,32.5,30.03,North,351,16.0,22.0,97,0.00,,,0.01,meteohub,2013-03-08 02:20:00,
2013-03-07 21:25:00,33.3,32.5,30.03,North,352,15.0,22.0,97,0.00,,,0.01,meteohub,2013-03-08 02:25:00,
2013-03-07 21:30:00,33.3,32.5,30.04,NNW,332,10.0,22.0,97,0.00,,,0.01,meteohub,2013-03-08 02:30:00,
2013-03-07 21:35:00,33.4,32.7,30.03,NW,316,15.0,22.0,97,0.00,,,0.01,meteohub,2013-03-08 02:35:00,
2013-03-07 21:40:00,33.4,32.7,30.03,NNW,340,17.0,22.0,97,0.00,,,0.01,meteohub,2013-03-08 02:40:00,
2013-03-07 21:46:00,33.4,32.7,30.03,NNW,348,18.0,23.0,97,0.00,,,0.01,meteohub,2013-03-08 02:46:00,
2013-03-07 21:51:00,33.4,32.7,30.03,NW,312,16.0,25.0,97,0.00,,,0.01,meteohub,2013-03-08 02:51:00,
2013-03-07 21:56:00,33.4,32.7,30.02,NNW,339,16.0,25.0,97,0.00,,,0.01,meteohub,2013-03-08 02:56:00,
2013-03-07 22:01:00,33.4,32.7,30.02,North,0,15.0,25.0,97,0.00,,,0.01,meteohub,2013-03-08 03:01:00,
2013-03-07 22:06:00,33.4,32.7,30.03,NNE,18,17.0,22.0,97,0.00,,,0.01,meteohub,2013-03-08 03:06:00,
2013-03-07 22:11:00,33.3,32.5,30.02,NW,323,13.0,22.0,97,0.00,,,0.01,meteohub,2013-03-08 03:11:00,
2013-03-07 22:16:00,33.3,32.5,30.02,NNW,338,13.0,22.0,97,0.00,,,0.01,meteohub,2013-03-08 03:16:00,
2013-03-07 22:21:00,33.3,32.5,30.02,NE,49,13.0,22.0,97,0.00,,,0.01,meteohub,2013-03-08 03:21:00,
2013-03-07 22:26:00,33.1,32.4,30.02,NNW,339,9.0,20.0,97,0.00,,,0.01,meteohub,2013-03-08 03:26:00,
2013-03-07 22:31:00,33.1,32.4,30.03,NNW,345,9.0,19.0,97,0.00,,,0.01,meteohub,2013-03-08 03:31:00,
2013-03-07 22:36:00,33.1,32.4,30.02,NNW,339,13.0,19.0,97,0.00,,,0.01,meteohub,2013-03-08 03:36:00,
2013-03-07 22:41:00,33.1,32.4,30.02,North,1,14.0,18.0,97,0.00,,,0.01,meteohub,2013-03-08 03:41:00,
2013-03-07 22:46:00,33.1,32.4,30.02,North,8,17.0,18.0,97,0.00,,,0.01,meteohub,2013-03-08 03:46:00,
2013-03-07 22:51:00,32.9,32.2,30.03,NNW,333,10.0,18.0,97,0.00,,,0.01,meteohub,2013-03-08 03:51:00,
2013-03-07 22:57:00,32.9,32.4,30.02,NW,326,7.0,18.0,98,0.00,,,0.01,meteohub,2013-03-08 03:57:00,
2013-03-07 23:02:00,33.1,32.5,30.02,NNW,348,18.0,18.0,98,0.00,,,0.01,meteohub,2013-03-08 04:02:00,
2013-03-07 23:07:00,32.9,32.4,30.02,NNW,338,11.0,22.0,98,0.00,,,0.01,meteohub,2013-03-08 04:07:00,
2013-03-07 23:12:00,33.1,32.5,30.02,NNE,25,13.0,22.0,98,0.00,,,0.01,meteohub,2013-03-08 04:12:00,
2013-03-07 23:17:00,33.1,32.5,30.02,NNW,347,9.0,22.0,98,0.00,,,0.01,meteohub,2013-03-08 04:17:00,
2013-03-07 23:22:00,33.1,32.5,30.02,North,350,20.0,20.0,98,0.00,,,0.01,meteohub,2013-03-08 04:22:00,
2013-03-07 23:27:00,32.9,32.4,30.02,NW,325,9.0,20.0,98,0.00,,,0.01,meteohub,2013-03-08 04:27:00,
2013-03-07 23:32:00,32.7,32.2,30.02,NNW,348,9.0,20.0,98,0.00,,,0.01,meteohub,2013-03-08 04:32:00,
2013-03-07 23:37:00,32.7,32.2,30.02,NNW,333,14.0,20.0,98,0.00,,,0.01,meteohub,2013-03-08 04:37:00,
2013-03-07 23:42:00,32.7,32.2,30.02,NNW,343,11.0,17.0,98,0.00,,,0.01,meteohub,2013-03-08 04:42:00,
2013-03-07 23:47:00,32.7,32.2,30.01,NW,326,9.0,17.0,98,0.00,,,0.01,meteohub,2013-03-08 04:47:00,
2013-03-07 23:52:00,32.9,32.4,30.02,WNW,286,8.0,20.0,98,0.00,,,0.01,meteohub,2013-03-08 04:52:00,
2013-03-07 23:57:00,32.7,32.2,30.02,NNW,338,11.0,20.0,98,0.00,,,0.01,meteohub,2013-03-08 04:57:00,